Tamara — HOEH — position and weather

sailwx.info

Track history (hours):
 
Tides and Currents Weather Stations Pressure Air Temp Water Temp Dewpoint Dewpoint Depression Visibility Wind Speed Wind Dir Waves Ship Positions

Tamara

Last reported at 2017-Jun-24 14:49 UTC. Time now 2017-Jun-24 15:25 UTC.
Position N 34°24' E 033°15'.

Length 117 m; draft 5.3 m.

Type: Ship (hazmat cat A). MMSI: 353900000.

Date/timePositionNaut miles runAvg speedWind from/ knotsBaromVisibWave heightAir tempDewpointWater temp
2017-Jun-24 14:49N 34°24' E 033°15'1113.4
2017-Jun-24 14:00N 34°32' E 033°08'713.6
2017-Jun-24 13:30N 34°39' E 033°05'1 2.0
2017-Jun-24 12:51N 34°40' E 033°04'0 0.0
2017-Jun-24 12:27N 34°40' E 033°04'0 0.0
2017-Jun-24 10:45N 34°40' E 033°04'0 0.0
2017-Jun-24 10:00N 34°40' E 033°04'0 0.0
2017-Jun-24 01:55N 34°40' E 033°04'9913.4
2017-Jun-23 18:31N 34°01' E 034°55'014.1
2017-Jun-23 18:30N 34°01' E 034°55'1314.1
2017-Jun-23 17:34N 33°57' E 035°10'314.2
2017-Jun-23 17:20N 33°56' E 035°14'814.1
2017-Jun-23 16:47N 33°56' E 035°23'11 0.3
2017-Jun-22 09:37N 33°45' E 035°21'214.1
2017-Jun-22 09:30N 33°44' E 035°20'  
Track history (hours):
 
Tides and Currents Weather Stations Pressure Air Temp Water Temp Dewpoint Dewpoint Depression Visibility Wind Speed Wind Dir Waves Ship Positions

Tamara

Last reported at 2017-Jun-24 14:49 UTC. Time now 2017-Jun-24 15:25 UTC.
Position N 34°24' E 033°15'.

Length 117 m; draft 5.3 m.

Type: Ship (hazmat cat A). MMSI: 353900000.

Date/timePositionNaut miles runAvg speedWind from/ knotsBaromVisibWave heightAir tempDewpointWater temp
2017-Jun-24 14:49N 34°24' E 033°15'1113.4
2017-Jun-24 14:00N 34°32' E 033°08'713.6
2017-Jun-24 13:30N 34°39' E 033°05'1 2.0
2017-Jun-24 12:51N 34°40' E 033°04'0 0.0
2017-Jun-24 12:27N 34°40' E 033°04'0 0.0
2017-Jun-24 10:45N 34°40' E 033°04'0 0.0
2017-Jun-24 10:00N 34°40' E 033°04'0 0.0
2017-Jun-24 01:55N 34°40' E 033°04'9913.4
2017-Jun-23 18:31N 34°01' E 034°55'014.1
2017-Jun-23 18:30N 34°01' E 034°55'1314.1
2017-Jun-23 17:34N 33°57' E 035°10'314.2
2017-Jun-23 17:20N 33°56' E 035°14'814.1
2017-Jun-23 16:47N 33°56' E 035°23'11 0.3
2017-Jun-22 09:37N 33°45' E 035°21'214.1
2017-Jun-22 09:30N 33°44' E 035°20'  

Dump ship's entire track history